createdAt,value
2023-05-04T00:02:04.098Z,10.80
2023-05-04T00:04:30.876Z,11.23
2023-05-04T00:06:57.648Z,11.75
2023-05-04T00:09:24.348Z,9.60
2023-05-04T00:11:51.143Z,13.63
2023-05-04T00:14:17.979Z,10.50
2023-05-04T00:16:44.745Z,11.45
2023-05-04T00:19:11.536Z,12.10
2023-05-04T00:21:38.269Z,7.88
2023-05-04T00:24:05.497Z,8.65
2023-05-04T00:26:32.170Z,10.18
2023-05-04T00:28:59.615Z,7.43
2023-05-04T00:31:26.358Z,13.85
2023-05-04T00:33:53.035Z,11.73
2023-05-04T00:36:19.703Z,7.28
2023-05-04T00:38:49.355Z,10.35
2023-05-04T00:41:17.591Z,6.93
2023-05-04T00:43:45.201Z,7.32
2023-05-04T00:46:12.440Z,10.10
2023-05-04T00:48:43.150Z,8.57
2023-05-04T00:51:11.454Z,7.85
2023-05-04T00:53:38.981Z,7.40
2023-05-04T00:56:06.944Z,7.88
2023-05-04T00:58:34.334Z,7.55
2023-05-04T01:01:01.764Z,9.27
2023-05-04T01:03:29.023Z,7.78
2023-05-04T01:06:29.476Z,7.45
2023-05-04T01:09:24.770Z,7.75
2023-05-04T01:11:59.214Z,6.38
2023-05-04T01:14:26.172Z,10.13
2023-05-04T01:16:58.560Z,12.57
2023-05-04T01:19:27.846Z,7.22
2023-05-04T01:21:54.656Z,7.03
2023-05-04T01:24:21.816Z,7.45
2023-05-04T01:26:49.242Z,9.57
2023-05-04T01:29:26.259Z,6.57
2023-05-04T01:31:53.183Z,7.60
2023-05-04T01:34:20.223Z,7.93
2023-05-04T01:36:47.232Z,8.98
2023-05-04T01:39:13.888Z,10.27
2023-05-04T01:41:41.866Z,9.82
2023-05-04T01:44:08.851Z,7.82
2023-05-04T01:46:35.651Z,9.13
2023-05-04T01:49:02.634Z,8.50
2023-05-04T01:51:29.329Z,5.78
2023-05-04T01:53:56.050Z,8.25
2023-05-04T01:56:22.814Z,10.05
2023-05-04T01:58:49.491Z,7.40
2023-05-04T02:01:16.285Z,10.60
2023-05-04T02:03:43.262Z,6.53
2023-05-04T02:06:10.436Z,6.55
2023-05-04T02:08:37.182Z,11.00
2023-05-04T02:11:03.899Z,11.88
2023-05-04T02:13:30.684Z,10.13
2023-05-04T02:15:57.522Z,11.27
2023-05-04T02:18:24.260Z,8.80
2023-05-04T02:20:50.961Z,6.38
2023-05-04T02:23:17.704Z,8.98
2023-05-04T02:25:44.446Z,11.07
2023-05-04T02:28:11.212Z,6.93
2023-05-04T02:30:37.927Z,9.52
2023-05-04T02:33:04.750Z,6.43
2023-05-04T02:35:31.512Z,10.27
2023-05-04T02:37:58.231Z,10.50
2023-05-04T02:40:25.244Z,10.57
2023-05-04T02:42:52.029Z,7.18
2023-05-04T02:45:18.752Z,9.38
2023-05-04T02:47:45.468Z,7.72
2023-05-04T02:50:12.223Z,7.18
2023-05-04T02:52:38.936Z,6.55
2023-05-04T02:55:07.044Z,6.57
2023-05-04T02:57:33.835Z,7.57
2023-05-04T03:00:00.584Z,9.48
2023-05-04T03:02:27.441Z,9.68
2023-05-04T03:04:54.135Z,6.22
2023-05-04T03:07:20.897Z,8.18
2023-05-04T03:09:47.859Z,5.82
2023-05-04T03:12:14.918Z,7.70
2023-05-04T03:14:41.614Z,9.93
2023-05-04T03:17:08.470Z,9.02
2023-05-04T03:19:35.234Z,9.48
2023-05-04T03:22:01.942Z,12.13
2023-05-04T03:24:28.681Z,9.77
2023-05-04T03:26:55.477Z,9.30
2023-05-04T03:29:22.217Z,8.38
2023-05-04T03:31:48.958Z,7.38
2023-05-04T03:34:15.754Z,8.73
2023-05-04T03:36:42.425Z,9.75
2023-05-04T03:39:09.135Z,8.95
2023-05-04T03:41:35.881Z,11.68
2023-05-04T03:44:02.563Z,10.43
2023-05-04T03:46:29.308Z,7.43
2023-05-04T03:48:56.068Z,8.38
2023-05-04T03:51:22.804Z,9.50
2023-05-04T03:53:49.583Z,8.32
2023-05-04T03:56:16.278Z,11.50
2023-05-04T03:58:43.001Z,8.38
2023-05-04T04:01:09.897Z,8.43
2023-05-04T04:03:36.834Z,7.55
2023-05-04T04:06:08.872Z,8.77
2023-05-04T04:08:36.201Z,9.55
2023-05-04T04:11:03.263Z,9.70
2023-05-04T04:13:29.958Z,11.02
2023-05-04T04:15:56.992Z,9.68
2023-05-04T04:18:24.549Z,8.32
2023-05-04T04:20:51.676Z,14.27
2023-05-04T04:23:19.568Z,7.53
2023-05-04T04:25:46.635Z,8.52
2023-05-04T04:28:14.278Z,8.55
2023-05-04T04:30:41.918Z,10.88
2023-05-04T04:33:09.248Z,9.30
2023-05-04T04:35:36.196Z,18.33
2023-05-04T04:38:03.871Z,12.10
2023-05-04T04:40:30.914Z,13.77
2023-05-04T04:42:57.654Z,13.70
2023-05-04T04:45:25.036Z,13.82
2023-05-04T04:47:51.882Z,12.77
2023-05-04T04:50:19.531Z,11.68
2023-05-04T04:52:46.593Z,9.95
2023-05-04T04:55:13.638Z,8.68
2023-05-04T04:57:40.396Z,12.68
2023-05-04T05:00:10.006Z,13.80
2023-05-04T05:02:37.071Z,14.10
2023-05-04T05:05:04.194Z,8.15
2023-05-04T05:07:31.070Z,10.60
2023-05-04T05:09:57.927Z,14.02
2023-05-04T05:12:25.042Z,11.32
2023-05-04T05:14:51.839Z,9.25
2023-05-04T05:17:19.760Z,11.98
2023-05-04T05:19:47.109Z,11.75
2023-05-04T05:22:13.970Z,9.07
2023-05-04T05:24:40.957Z,9.90
2023-05-04T05:27:07.800Z,11.23
2023-05-04T05:29:35.576Z,10.20
2023-05-04T05:32:02.312Z,10.82
2023-05-04T05:34:29.097Z,9.55
2023-05-04T05:36:55.851Z,11.05
2023-05-04T05:39:22.774Z,9.13
2023-05-04T05:41:49.480Z,12.13
2023-05-04T05:44:16.229Z,12.10
2023-05-04T05:46:43.040Z,10.27
2023-05-04T05:49:09.872Z,12.20
2023-05-04T05:51:36.760Z,12.80
2023-05-04T05:54:03.728Z,14.52
2023-05-04T05:56:30.473Z,10.65
2023-05-04T05:58:57.222Z,11.05
2023-05-04T06:01:24.351Z,13.85
2023-05-04T06:03:51.323Z,11.68
2023-05-04T06:06:18.110Z,11.73
2023-05-04T06:08:45.253Z,12.70
2023-05-04T06:11:12.191Z,13.23
2023-05-04T06:13:39.685Z,13.20
2023-05-04T06:16:06.531Z,13.45
2023-05-04T06:18:33.313Z,13.50
2023-05-04T06:21:01.006Z,11.52
2023-05-04T06:23:29.142Z,12.05
2023-05-04T06:25:55.947Z,15.45
2023-05-04T06:28:22.852Z,16.30
2023-05-04T06:30:49.863Z,16.90
2023-05-04T06:33:16.624Z,16.65
2023-05-04T06:35:43.482Z,13.73
2023-05-04T06:38:10.256Z,16.70
2023-05-04T06:40:37.175Z,14.80
2023-05-04T06:43:04.009Z,15.70
2023-05-04T06:45:30.791Z,12.82
2023-05-04T06:47:57.836Z,13.38
2023-05-04T06:50:24.573Z,11.18
2023-05-04T06:52:52.228Z,16.63
2023-05-04T06:55:19.342Z,10.13
2023-05-04T06:57:46.076Z,14.38
2023-05-04T07:00:15.724Z,13.57
2023-05-04T07:02:42.466Z,11.65
2023-05-04T07:05:09.362Z,11.73
2023-05-04T07:07:36.483Z,9.65
2023-05-04T07:10:03.594Z,12.50
2023-05-04T07:12:30.594Z,10.25
2023-05-04T07:14:57.456Z,11.10
2023-05-04T07:17:25.847Z,9.98
2023-05-04T07:19:52.712Z,8.50
2023-05-04T07:22:21.104Z,10.00
2023-05-04T07:24:47.826Z,10.35
2023-05-04T07:27:14.608Z,10.40
2023-05-04T07:29:41.934Z,11.10
2023-05-04T07:32:08.802Z,11.70
2023-05-04T07:34:45.085Z,8.25
2023-05-04T07:37:15.881Z,8.00
2023-05-04T07:39:42.679Z,10.23
2023-05-04T07:42:11.592Z,8.85
2023-05-04T07:44:38.428Z,8.15
2023-05-04T07:47:05.283Z,11.15
2023-05-04T07:49:32.363Z,11.18
2023-05-04T07:51:59.382Z,12.27
2023-05-04T07:54:26.152Z,10.13
2023-05-04T07:56:52.897Z,8.65
2023-05-04T07:59:19.711Z,13.18
2023-05-04T08:01:46.899Z,8.43
2023-05-04T08:04:13.683Z,9.00
2023-05-04T08:06:40.561Z,8.50
2023-05-04T08:09:07.276Z,11.98
2023-05-04T08:11:38.288Z,8.95
2023-05-04T08:14:04.995Z,6.78
2023-05-04T08:16:32.630Z,9.50
2023-05-04T08:19:01.512Z,6.75
2023-05-04T08:21:28.603Z,7.00
2023-05-04T08:23:55.614Z,5.85
2023-05-04T08:26:22.336Z,5.72
2023-05-04T08:28:49.970Z,6.00
2023-05-04T08:31:18.819Z,7.05
2023-05-04T08:33:48.697Z,12.63
2023-05-04T08:36:15.866Z,8.50
2023-05-04T08:38:42.817Z,8.90
2023-05-04T08:41:11.323Z,7.13
2023-05-04T08:43:38.524Z,7.40
2023-05-04T08:46:06.901Z,7.95
2023-05-04T08:48:35.178Z,7.38
2023-05-04T08:51:03.194Z,8.90
2023-05-04T08:53:31.877Z,9.00
2023-05-04T08:56:03.894Z,7.97
2023-05-04T08:58:31.841Z,10.10
2023-05-04T09:00:59.636Z,7.45
2023-05-04T09:03:26.788Z,9.18
2023-05-04T09:05:54.415Z,7.03
2023-05-04T09:08:21.400Z,7.18
2023-05-04T09:10:48.479Z,8.98
2023-05-04T09:13:15.316Z,8.20
2023-05-04T09:15:42.853Z,7.47
2023-05-04T09:18:12.190Z,8.55
2023-05-04T09:20:49.840Z,8.77
2023-05-04T09:23:18.345Z,8.25
2023-05-04T09:25:49.478Z,6.97
2023-05-04T09:28:17.270Z,8.30
2023-05-04T09:30:44.760Z,8.52
2023-05-04T09:33:11.723Z,8.23
2023-05-04T09:35:43.310Z,8.85
2023-05-04T09:38:10.493Z,9.05
2023-05-04T09:40:40.452Z,8.50
2023-05-04T09:43:08.738Z,11.25
2023-05-04T09:45:53.589Z,7.07
2023-05-04T09:48:34.424Z,9.15
2023-05-04T09:51:06.577Z,8.25
2023-05-04T09:53:33.832Z,6.78
2023-05-04T09:56:15.159Z,4.80
2023-05-04T09:58:43.313Z,9.63
2023-05-04T10:01:10.556Z,7.10
2023-05-04T10:03:39.396Z,6.00
2023-05-04T10:06:06.444Z,7.90
2023-05-04T10:08:33.552Z,6.20
2023-05-04T10:11:00.559Z,5.95
2023-05-04T10:13:27.411Z,6.85
2023-05-04T10:16:06.809Z,14.57
2023-05-04T10:19:12.825Z,8.30
2023-05-04T10:21:51.341Z,11.15
2023-05-04T10:25:00.498Z,7.28
2023-05-04T10:27:44.178Z,6.85
2023-05-04T10:30:12.797Z,10.33
2023-05-04T10:32:40.386Z,10.70
2023-05-04T10:35:08.419Z,8.20
2023-05-04T10:37:37.845Z,8.98
2023-05-04T10:40:07.798Z,10.93
2023-05-04T10:42:44.661Z,7.82
2023-05-04T10:45:11.583Z,6.90
2023-05-04T10:47:40.977Z,5.70
2023-05-04T10:50:09.603Z,6.35
2023-05-04T10:52:54.003Z,5.32
2023-05-04T10:57:53.424Z,4.05
2023-05-04T11:00:20.607Z,4.22
2023-05-04T11:02:48.429Z,4.55
2023-05-04T11:05:20.623Z,5.30
2023-05-04T11:07:51.010Z,3.72
2023-05-04T11:10:25.465Z,6.50
2023-05-04T11:12:55.389Z,4.38
2023-05-04T11:15:22.388Z,5.57
2023-05-04T11:17:53.061Z,5.07
2023-05-04T11:20:21.545Z,4.10
2023-05-04T11:22:49.408Z,4.32
2023-05-04T11:25:17.341Z,4.35
2023-05-04T11:27:44.623Z,3.65
2023-05-04T11:30:12.011Z,4.65
2023-05-04T11:32:49.949Z,4.35
2023-05-04T11:35:19.088Z,5.10
2023-05-04T11:37:47.485Z,4.15
2023-05-04T11:40:19.857Z,8.43
2023-05-04T11:42:47.048Z,7.78
2023-05-04T11:45:18.670Z,6.03
2023-05-04T11:47:46.911Z,5.43
2023-05-04T11:50:15.157Z,5.07
2023-05-04T11:52:42.347Z,5.65
2023-05-04T11:55:13.967Z,7.13
2023-05-04T11:57:40.886Z,6.28
2023-05-04T12:00:09.456Z,7.43
2023-05-04T12:02:36.470Z,6.15
2023-05-04T12:05:03.901Z,7.00
2023-05-04T12:07:31.022Z,8.35
2023-05-04T12:09:57.837Z,8.60
2023-05-04T12:12:35.850Z,5.63
2023-05-04T12:15:02.748Z,6.82
2023-05-04T12:17:40.268Z,6.78
2023-05-04T12:20:07.684Z,11.10
2023-05-04T12:22:36.112Z,8.07
2023-05-04T12:25:02.969Z,5.72
2023-05-04T12:27:29.868Z,5.88
2023-05-04T12:29:56.762Z,6.32
2023-05-04T12:32:23.518Z,5.85
2023-05-04T12:34:50.352Z,6.80
2023-05-04T12:37:17.117Z,6.30
2023-05-04T12:39:43.819Z,6.65
2023-05-04T12:42:10.532Z,6.25
2023-05-04T12:44:37.334Z,7.03
2023-05-04T12:47:04.337Z,5.43
2023-05-04T12:49:31.350Z,6.38
2023-05-04T12:51:58.501Z,5.50
2023-05-04T12:54:25.762Z,7.25
2023-05-04T12:56:53.717Z,7.72
2023-05-04T12:59:20.447Z,5.68
2023-05-04T13:01:47.298Z,11.55
2023-05-04T13:04:14.514Z,6.10
2023-05-04T13:06:42.827Z,8.73
2023-05-04T13:09:09.934Z,8.95
2023-05-04T13:11:36.874Z,6.35
2023-05-04T13:14:03.797Z,13.07
2023-05-04T13:16:31.076Z,9.27
2023-05-04T13:18:58.374Z,10.15
2023-05-04T13:21:25.282Z,8.43
2023-05-04T13:23:52.527Z,12.30
2023-05-04T13:26:19.244Z,8.57
2023-05-04T13:28:46.195Z,9.88
2023-05-04T13:31:13.232Z,6.47
2023-05-04T13:33:40.174Z,7.88
2023-05-04T13:36:07.323Z,8.52
2023-05-04T13:38:34.175Z,9.75
2023-05-04T13:41:01.142Z,7.80
2023-05-04T13:43:28.550Z,11.63
2023-05-04T13:45:57.445Z,6.63
2023-05-04T13:48:26.272Z,7.75
2023-05-04T13:50:53.561Z,9.85
2023-05-04T13:53:20.379Z,6.53
2023-05-04T13:55:47.720Z,11.68
2023-05-04T13:58:14.470Z,12.10
2023-05-04T14:00:41.657Z,9.48
2023-05-04T14:03:08.531Z,9.70
2023-05-04T14:05:36.093Z,8.95
2023-05-04T14:08:03.255Z,7.88
2023-05-04T14:10:30.103Z,7.32
2023-05-04T14:12:59.904Z,9.70
2023-05-04T14:15:27.796Z,7.60
2023-05-04T14:17:54.821Z,13.25
2023-05-04T14:20:21.712Z,9.50
2023-05-04T14:22:48.524Z,6.60
2023-05-04T14:25:15.519Z,5.68
2023-05-04T14:27:43.416Z,4.55
2023-05-04T14:30:11.198Z,4.78
2023-05-04T14:32:37.974Z,9.07
2023-05-04T14:35:10.321Z,6.68
2023-05-04T14:37:38.700Z,6.53
2023-05-04T14:40:11.206Z,10.23
2023-05-04T14:42:38.813Z,6.25
2023-05-04T14:45:07.513Z,5.93
2023-05-04T14:47:34.932Z,5.70
2023-05-04T14:50:02.569Z,7.53
2023-05-04T14:52:29.359Z,4.22
2023-05-04T14:54:56.460Z,5.13
2023-05-04T14:57:23.426Z,5.63
2023-05-04T14:59:50.274Z,5.32
2023-05-04T15:02:18.973Z,11.93
2023-05-04T15:04:47.293Z,10.07
2023-05-04T15:07:18.968Z,5.72
2023-05-04T15:09:45.688Z,5.22
2023-05-04T15:12:12.911Z,8.15
2023-05-04T15:14:39.854Z,5.40
2023-05-04T15:17:07.620Z,6.07
2023-05-04T15:19:36.820Z,7.15
2023-05-04T15:22:04.453Z,4.03
2023-05-04T15:24:31.803Z,3.45
2023-05-04T15:26:58.738Z,9.50
2023-05-04T15:29:25.761Z,5.50
2023-05-04T15:31:52.624Z,7.95
2023-05-04T15:34:19.621Z,6.13
2023-05-04T15:36:46.501Z,5.55
2023-05-04T15:39:13.682Z,4.32
2023-05-04T15:41:42.081Z,4.13
2023-05-04T15:44:09.091Z,5.82
2023-05-04T15:46:36.136Z,3.35
2023-05-04T15:49:02.914Z,5.03
2023-05-04T15:51:32.236Z,3.50
2023-05-04T15:53:59.726Z,6.05
2023-05-04T15:56:26.569Z,3.95
2023-05-04T15:58:53.296Z,3.38
2023-05-04T16:01:20.187Z,5.07
2023-05-04T16:03:47.515Z,5.93
2023-05-04T16:06:18.055Z,3.85
2023-05-04T16:08:44.915Z,4.32
2023-05-04T16:11:11.872Z,4.57
2023-05-04T16:13:38.893Z,6.05
2023-05-04T16:16:06.233Z,3.75
2023-05-04T16:18:33.017Z,2.55
2023-05-04T16:20:59.849Z,4.25
2023-05-04T16:23:27.121Z,6.78
2023-05-04T16:25:54.195Z,8.20
2023-05-04T16:28:21.085Z,5.72
2023-05-04T16:30:51.189Z,2.75
2023-05-04T16:33:19.970Z,6.53
2023-05-04T16:35:46.730Z,5.45
2023-05-04T16:38:13.824Z,4.07
2023-05-04T16:40:42.188Z,6.38
2023-05-04T16:43:10.645Z,4.28
2023-05-04T16:45:38.414Z,4.53
2023-05-04T16:48:06.106Z,6.38
2023-05-04T16:50:32.973Z,5.40
2023-05-04T16:52:59.944Z,6.30
2023-05-04T16:55:27.541Z,6.88
2023-05-04T16:57:58.090Z,5.13
2023-05-04T17:00:25.512Z,4.28
2023-05-04T17:02:53.156Z,6.70
2023-05-04T17:05:20.813Z,9.10
2023-05-04T17:07:47.792Z,6.85
2023-05-04T17:10:20.727Z,4.20
2023-05-04T17:12:47.567Z,6.93
2023-05-04T17:15:14.429Z,5.90
2023-05-04T17:17:41.812Z,4.65
2023-05-04T17:20:09.701Z,7.03
2023-05-04T17:22:36.986Z,3.53
2023-05-04T17:25:04.097Z,6.00
2023-05-04T17:27:31.839Z,4.80
2023-05-04T17:29:58.654Z,5.85
2023-05-04T17:32:25.601Z,7.50
2023-05-04T17:34:52.431Z,3.65
2023-05-04T17:37:19.289Z,4.53
2023-05-04T17:39:47.419Z,6.18
2023-05-04T17:42:16.189Z,6.97
2023-05-04T17:44:42.932Z,6.70
2023-05-04T17:47:09.823Z,8.50
2023-05-04T17:49:36.688Z,12.40
2023-05-04T17:52:03.763Z,6.47
2023-05-04T17:54:32.362Z,7.00
2023-05-04T17:56:59.177Z,6.20
2023-05-04T17:59:26.087Z,6.32
2023-05-04T18:01:53.641Z,6.88
2023-05-04T18:04:20.590Z,4.95
2023-05-04T18:06:48.778Z,5.85
2023-05-04T18:09:17.512Z,7.75
2023-05-04T18:11:44.417Z,8.73
2023-05-04T18:14:11.357Z,7.68
2023-05-04T18:16:39.743Z,5.53
2023-05-04T18:19:06.893Z,8.45
2023-05-04T18:21:37.467Z,7.78
2023-05-04T18:24:05.023Z,7.57
2023-05-04T18:26:32.166Z,6.88
2023-05-04T18:29:04.519Z,6.18
2023-05-04T18:31:44.544Z,8.05
2023-05-04T18:34:11.810Z,7.05
2023-05-04T18:36:38.847Z,6.00
2023-05-04T18:39:05.620Z,8.10
2023-05-04T18:41:32.617Z,11.25
2023-05-04T18:44:01.185Z,6.78
2023-05-04T18:46:28.298Z,5.07
2023-05-04T18:48:56.426Z,7.78
2023-05-04T18:51:23.304Z,4.97
2023-05-04T18:53:50.450Z,6.28
2023-05-04T18:56:17.253Z,7.57
2023-05-04T18:58:44.092Z,7.82
2023-05-04T19:01:10.844Z,7.82
2023-05-04T19:03:37.858Z,5.40
2023-05-04T19:06:04.927Z,4.55
2023-05-04T19:08:31.788Z,7.45
2023-05-04T19:10:59.804Z,5.75
2023-05-04T19:13:26.674Z,9.82
2023-05-04T19:15:53.470Z,5.63
2023-05-04T19:18:20.712Z,7.07
2023-05-04T19:20:47.518Z,6.28
2023-05-04T19:23:14.581Z,12.45
2023-05-04T19:25:41.338Z,9.20
2023-05-04T19:28:09.292Z,8.05
2023-05-04T19:30:37.302Z,11.18
2023-05-04T19:33:04.638Z,6.00
2023-05-04T19:35:31.594Z,8.65
2023-05-04T19:37:58.708Z,6.72
2023-05-04T19:40:25.617Z,7.35
2023-05-04T19:42:52.440Z,6.03
2023-05-04T19:45:19.429Z,6.72
2023-05-04T19:47:46.350Z,9.65
2023-05-04T19:50:14.384Z,7.68
2023-05-04T19:52:41.208Z,4.38
2023-05-04T19:55:09.338Z,5.47
2023-05-04T19:57:36.129Z,7.18
2023-05-04T20:00:03.441Z,4.47
2023-05-04T20:02:30.274Z,5.45
2023-05-04T20:04:57.178Z,7.57
2023-05-04T20:07:24.877Z,5.00
2023-05-04T20:09:51.732Z,4.97
2023-05-04T20:12:18.613Z,10.30
2023-05-04T20:14:45.601Z,4.95
2023-05-04T20:17:12.454Z,6.28
2023-05-04T20:19:40.868Z,5.65
2023-05-04T20:22:07.601Z,7.32
2023-05-04T20:24:34.551Z,7.95
2023-05-04T20:27:01.312Z,6.68
2023-05-04T20:29:29.292Z,5.68
2023-05-04T20:31:56.688Z,4.90
2023-05-04T20:34:23.512Z,10.07
2023-05-04T20:36:50.288Z,13.40
2023-05-04T20:39:17.442Z,16.20
2023-05-04T20:41:44.345Z,10.02
2023-05-04T20:44:11.391Z,16.83
2023-05-04T20:46:38.419Z,7.13
2023-05-04T20:49:05.189Z,14.88
2023-05-04T20:51:32.786Z,9.18
2023-05-04T20:53:59.619Z,7.80
2023-05-04T20:56:26.524Z,11.68
2023-05-04T20:58:53.679Z,6.38
2023-05-04T21:01:20.610Z,4.97
2023-05-04T21:03:47.963Z,6.05
2023-05-04T21:06:14.774Z,7.18
2023-05-04T21:08:42.010Z,4.63
2023-05-04T21:11:08.908Z,4.47
2023-05-04T21:13:35.818Z,6.72
2023-05-04T21:16:03.088Z,8.80
2023-05-04T21:18:29.906Z,5.38
2023-05-04T21:20:56.767Z,8.82
2023-05-04T21:23:25.253Z,8.40
2023-05-04T21:26:00.728Z,5.10
2023-05-04T21:28:27.490Z,6.90
2023-05-04T21:30:54.267Z,6.60
2023-05-04T21:33:21.498Z,5.40
2023-05-04T21:35:48.298Z,6.82
2023-05-04T21:38:14.999Z,6.38
2023-05-04T21:40:41.818Z,6.38
2023-05-04T21:43:09.101Z,7.10
2023-05-04T21:45:35.945Z,5.55
2023-05-04T21:48:04.009Z,4.68
2023-05-04T21:50:31.276Z,8.25
2023-05-04T21:52:58.105Z,6.18
2023-05-04T21:55:24.910Z,5.32
2023-05-04T21:57:51.888Z,5.88
2023-05-04T22:00:19.220Z,7.15
2023-05-04T22:02:46.075Z,6.30
2023-05-04T22:05:13.038Z,41.25
2023-05-04T22:07:39.794Z,55.17
2023-05-04T22:10:07.834Z,51.53
2023-05-04T22:12:35.003Z,48.28
2023-05-04T22:15:01.773Z,30.95
2023-05-04T22:17:28.689Z,21.30
2023-05-04T22:19:55.475Z,18.08
2023-05-04T22:22:22.368Z,10.65
2023-05-04T22:24:49.143Z,10.90
2023-05-04T22:27:16.013Z,12.45
2023-05-04T22:29:43.006Z,7.47
2023-05-04T22:32:09.722Z,11.80
2023-05-04T22:34:36.629Z,14.02
2023-05-04T22:37:03.730Z,11.32
2023-05-04T22:39:30.436Z,11.73
2023-05-04T22:41:57.186Z,10.30
2023-05-04T22:44:24.245Z,10.20
2023-05-04T22:46:51.108Z,9.90
2023-05-04T22:49:17.874Z,9.35
2023-05-04T22:51:44.663Z,13.27
2023-05-04T22:54:11.542Z,10.35
2023-05-04T22:56:38.423Z,9.18
2023-05-04T22:59:06.555Z,8.32
2023-05-04T23:01:33.447Z,10.65
2023-05-04T23:04:00.308Z,7.65
2023-05-04T23:06:28.746Z,10.80
2023-05-04T23:08:55.563Z,7.50
2023-05-04T23:11:22.496Z,9.18
2023-05-04T23:13:49.558Z,9.50
2023-05-04T23:16:16.437Z,9.13
2023-05-04T23:18:43.316Z,9.80
2023-05-04T23:21:10.109Z,10.38
2023-05-04T23:23:36.931Z,11.20
2023-05-04T23:26:03.847Z,9.68
2023-05-04T23:28:30.821Z,11.82
2023-05-04T23:30:57.526Z,9.60
2023-05-04T23:33:24.532Z,8.60
2023-05-04T23:35:54.894Z,8.90
2023-05-04T23:38:23.165Z,7.03
2023-05-04T23:40:50.391Z,11.20
2023-05-04T23:43:17.274Z,11.27
2023-05-04T23:45:44.334Z,12.82
2023-05-04T23:48:11.222Z,7.82
2023-05-04T23:50:38.096Z,9.90
2023-05-04T23:53:04.842Z,8.63
2023-05-04T23:55:31.860Z,10.88
2023-05-04T23:57:58.694Z,10.45
